Terminal Aerodrome Forecast
Issued by NWS

Home | Current Version | Previous Version | Text Only | Print | Product List | Glossary On
Versions: 1 2 3 4 5 6 7 8 9 10 11 12 13 14 15 16 17 18 19 20 21 22 23 24 25 26 27 28 29 30 31 32 33 34 35
000
FTUS45 KSLC 280520
TAFBCE
TAF
KBCE 280520Z 2806/2906 VRB06KT P6SM VCSH SCT060 BKN090
     FM280900 VRB05KT P6SM SCT070 BKN110
     FM281800 14008KT P6SM VCTS SCT050CB BKN070
     FM282300 28009KT P6SM VCSH SCT050 BKN070
     FM290300 32005KT P6SM SCT070 BKN090=

USA.gov is the U.S. government's official web portal to all federal, state and local government web resources and services.